sensor_id;sensor_type;location;lat;lon;timestamp;pressure;altitude;pressure_sealevel;temperature;humidity
20394;BME280;10356;50.544;9.642;2023-10-13T00:00:25;98241.16;;;15.32;100.00
20394;BME280;10356;50.544;9.642;2023-10-13T00:02:56;98250.22;;;15.38;100.00
20394;BME280;10356;50.544;9.642;2023-10-13T00:05:26;98242.50;;;15.36;100.00
20394;BME280;10356;50.544;9.642;2023-10-13T00:07:52;98243.34;;;15.37;100.00
20394;BME280;10356;50.544;9.642;2023-10-13T00:10:19;98247.75;;;15.36;100.00
20394;BME280;10356;50.544;9.642;2023-10-13T00:12:46;98241.50;;;15.37;100.00
20394;BME280;10356;50.544;9.642;2023-10-13T00:15:16;98249.53;;;15.45;100.00
20394;BME280;10356;50.544;9.642;2023-10-13T00:17:43;98242.88;;;15.41;100.00
20394;BME280;10356;50.544;9.642;2023-10-13T00:20:10;98229.06;;;15.39;100.00
20394;BME280;10356;50.544;9.642;2023-10-13T00:22:58;98227.81;;;15.43;100.00
20394;BME280;10356;50.544;9.642;2023-10-13T00:25:25;98229.88;;;15.49;100.00
20394;BME280;10356;50.544;9.642;2023-10-13T00:27:57;98240.22;;;15.51;100.00
20394;BME280;10356;50.544;9.642;2023-10-13T00:30:27;98242.69;;;15.52;100.00
20394;BME280;10356;50.544;9.642;2023-10-13T00:32:59;98252.38;;;15.52;100.00
20394;BME280;10356;50.544;9.642;2023-10-13T00:35:27;98242.84;;;15.51;100.00
20394;BME280;10356;50.544;9.642;2023-10-13T00:37:54;98232.50;;;15.49;100.00
20394;BME280;10356;50.544;9.642;2023-10-13T00:40:23;98234.53;;;15.55;100.00
20394;BME280;10356;50.544;9.642;2023-10-13T00:43:07;98235.22;;;15.57;100.00
20394;BME280;10356;50.544;9.642;2023-10-13T00:45:55;98229.13;;;15.57;100.00
20394;BME280;10356;50.544;9.642;2023-10-13T00:48:23;98219.88;;;15.53;100.00
20394;BME280;10356;50.544;9.642;2023-10-13T00:50:55;98225.16;;;15.53;100.00
20394;BME280;10356;50.544;9.642;2023-10-13T00:53:23;98213.97;;;15.51;100.00
20394;BME280;10356;50.544;9.642;2023-10-13T00:55:50;98207.03;;;15.50;100.00
20394;BME280;10356;50.544;9.642;2023-10-13T00:58:17;98203.63;;;15.49;100.00
20394;BME280;10356;50.544;9.642;2023-10-13T01:00:48;98202.03;;;15.56;100.00
20394;BME280;10356;50.544;9.642;2023-10-13T01:03:23;98205.63;;;15.55;100.00
20394;BME280;10356;50.544;9.642;2023-10-13T01:05:53;98203.97;;;15.54;100.00
20394;BME280;10356;50.544;9.642;2023-10-13T01:08:31;98217.25;;;15.53;100.00
20394;BME280;10356;50.544;9.642;2023-10-13T01:10:59;98214.78;;;15.51;100.00
20394;BME280;10356;50.544;9.642;2023-10-13T01:13:26;98213.66;;;15.54;100.00
20394;BME280;10356;50.544;9.642;2023-10-13T01:15:52;98212.97;;;15.52;100.00
20394;BME280;10356;50.544;9.642;2023-10-13T01:18:19;98203.31;;;15.52;100.00
20394;BME280;10356;50.544;9.642;2023-10-13T01:20:46;98200.66;;;15.52;100.00
20394;BME280;10356;50.544;9.642;2023-10-13T01:23:18;98202.63;;;15.50;100.00
20394;BME280;10356;50.544;9.642;2023-10-13T01:25:44;98200.00;;;15.50;100.00
20394;BME280;10356;50.544;9.642;2023-10-13T01:28:11;98193.91;;;15.50;100.00
20394;BME280;10356;50.544;9.642;2023-10-13T01:30:41;98201.00;;;15.49;100.00
20394;BME280;10356;50.544;9.642;2023-10-13T01:33:08;98204.56;;;15.48;100.00
20394;BME280;10356;50.544;9.642;2023-10-13T01:35:36;98201.78;;;15.50;100.00
20394;BME280;10356;50.544;9.642;2023-10-13T01:38:07;98196.53;;;15.50;100.00
20394;BME280;10356;50.544;9.642;2023-10-13T01:40:34;98200.38;;;15.55;100.00
20394;BME280;10356;50.544;9.642;2023-10-13T01:43:01;98191.84;;;15.53;100.00
20394;BME280;10356;50.544;9.642;2023-10-13T01:45:26;98184.56;;;15.47;100.00
20394;BME280;10356;50.544;9.642;2023-10-13T01:47:55;98192.72;;;15.44;100.00
20394;BME280;10356;50.544;9.642;2023-10-13T01:50:21;98187.47;;;15.44;100.00
20394;BME280;10356;50.544;9.642;2023-10-13T01:52:54;98181.25;;;15.45;100.00
20394;BME280;10356;50.544;9.642;2023-10-13T01:55:31;98185.69;;;15.45;100.00
20394;BME280;10356;50.544;9.642;2023-10-13T01:58:05;98191.06;;;15.43;100.00
20394;BME280;10356;50.544;9.642;2023-10-13T02:00:39;98180.16;;;15.38;100.00
20394;BME280;10356;50.544;9.642;2023-10-13T02:03:07;98172.97;;;15.40;100.00
20394;BME280;10356;50.544;9.642;2023-10-13T02:05:39;98177.53;;;15.38;100.00
20394;BME280;10356;50.544;9.642;2023-10-13T02:08:09;98167.31;;;15.35;100.00
20394;BME280;10356;50.544;9.642;2023-10-13T02:10:36;98163.06;;;15.34;100.00
20394;BME280;10356;50.544;9.642;2023-10-13T02:13:12;98174.00;;;15.30;100.00
20394;BME280;10356;50.544;9.642;2023-10-13T02:15:41;98175.97;;;15.28;100.00
20394;BME280;10356;50.544;9.642;2023-10-13T02:18:10;98173.31;;;15.28;100.00
20394;BME280;10356;50.544;9.642;2023-10-13T02:20:35;98177.06;;;15.25;100.00
20394;BME280;10356;50.544;9.642;2023-10-13T02:23:08;98176.13;;;15.26;100.00
20394;BME280;10356;50.544;9.642;2023-10-13T02:25:36;98165.78;;;15.25;100.00
20394;BME280;10356;50.544;9.642;2023-10-13T02:28:09;98151.13;;;15.22;100.00
20394;BME280;10356;50.544;9.642;2023-10-13T02:30:38;98147.84;;;15.20;100.00
20394;BME280;10356;50.544;9.642;2023-10-13T02:33:10;98147.69;;;15.22;100.00
20394;BME280;10356;50.544;9.642;2023-10-13T02:35:37;98155.47;;;15.31;100.00
20394;BME280;10356;50.544;9.642;2023-10-13T02:38:15;98153.50;;;15.33;100.00
20394;BME280;10356;50.544;9.642;2023-10-13T02:40:42;98147.16;;;15.36;100.00
20394;BME280;10356;50.544;9.642;2023-10-13T02:43:09;98140.78;;;15.38;100.00
20394;BME280;10356;50.544;9.642;2023-10-13T02:45:36;98152.38;;;15.45;100.00
20394;BME280;10356;50.544;9.642;2023-10-13T02:48:03;98140.88;;;15.46;100.00
20394;BME280;10356;50.544;9.642;2023-10-13T02:50:42;98149.28;;;15.50;100.00
20394;BME280;10356;50.544;9.642;2023-10-13T02:53:11;98144.03;;;15.50;100.00
20394;BME280;10356;50.544;9.642;2023-10-13T02:55:50;98134.34;;;15.50;100.00
20394;BME280;10356;50.544;9.642;2023-10-13T02:58:17;98129.41;;;15.47;100.00
20394;BME280;10356;50.544;9.642;2023-10-13T03:00:43;98131.03;;;15.48;100.00
20394;BME280;10356;50.544;9.642;2023-10-13T03:03:10;98127.13;;;15.52;100.00
20394;BME280;10356;50.544;9.642;2023-10-13T03:05:39;98123.00;;;15.50;100.00
20394;BME280;10356;50.544;9.642;2023-10-13T03:08:07;98131.03;;;15.48;100.00
20394;BME280;10356;50.544;9.642;2023-10-13T03:10:34;98117.75;;;15.50;100.00
20394;BME280;10356;50.544;9.642;2023-10-13T03:13:05;98117.63;;;15.51;100.00
20394;BME280;10356;50.544;9.642;2023-10-13T03:15:34;98112.81;;;15.47;100.00
20394;BME280;10356;50.544;9.642;2023-10-13T03:18:01;98110.78;;;15.41;100.00
20394;BME280;10356;50.544;9.642;2023-10-13T03:20:27;98104.03;;;15.38;100.00
20394;BME280;10356;50.544;9.642;2023-10-13T03:22:57;98099.28;;;15.42;100.00
20394;BME280;10356;50.544;9.642;2023-10-13T03:25:24;98106.31;;;15.41;100.00
20394;BME280;10356;50.544;9.642;2023-10-13T03:27:55;98100.41;;;15.39;100.00
20394;BME280;10356;50.544;9.642;2023-10-13T03:30:31;98093.13;;;15.33;100.00
20394;BME280;10356;50.544;9.642;2023-10-13T03:33:05;98081.06;;;15.40;100.00
20394;BME280;10356;50.544;9.642;2023-10-13T03:35:34;98089.22;;;15.37;100.00
20394;BME280;10356;50.544;9.642;2023-10-13T03:38:05;98084.66;;;15.39;100.00
20394;BME280;10356;50.544;9.642;2023-10-13T03:40:40;98081.59;;;15.44;100.00
20394;BME280;10356;50.544;9.642;2023-10-13T03:43:06;98085.44;;;15.49;100.00
20394;BME280;10356;50.544;9.642;2023-10-13T03:45:36;98081.16;;;15.48;100.00
20394;BME280;10356;50.544;9.642;2023-10-13T03:48:07;98083.16;;;15.54;100.00
20394;BME280;10356;50.544;9.642;2023-10-13T03:50:46;98079.03;;;15.52;100.00
20394;BME280;10356;50.544;9.642;2023-10-13T03:53:23;98082.19;;;15.55;100.00
20394;BME280;10356;50.544;9.642;2023-10-13T03:55:51;98072.66;;;15.54;100.00
20394;BME280;10356;50.544;9.642;2023-10-13T03:58:33;98073.31;;;15.56;100.00
20394;BME280;10356;50.544;9.642;2023-10-13T04:01:00;98075.13;;;15.56;100.00
20394;BME280;10356;50.544;9.642;2023-10-13T04:03:30;98070.69;;;15.56;100.00
20394;BME280;10356;50.544;9.642;2023-10-13T04:06:00;98062.16;;;15.54;100.00
20394;BME280;10356;50.544;9.642;2023-10-13T04:08:31;98064.28;;;15.51;100.00
20394;BME280;10356;50.544;9.642;2023-10-13T04:11:33;98064.44;;;15.49;100.00
20394;BME280;10356;50.544;9.642;2023-10-13T04:14:41;98054.22;;;15.46;100.00
20394;BME280;10356;50.544;9.642;2023-10-13T04:17:21;98056.84;;;15.46;100.00
20394;BME280;10356;50.544;9.642;2023-10-13T04:19:55;98057.97;;;15.44;100.00
20394;BME280;10356;50.544;9.642;2023-10-13T04:22:38;98059.75;;;15.43;100.00
20394;BME280;10356;50.544;9.642;2023-10-13T04:25:20;98050.94;;;15.44;100.00
20394;BME280;10356;50.544;9.642;2023-10-13T04:28:04;98037.38;;;15.39;100.00
20394;BME280;10356;50.544;9.642;2023-10-13T04:30:41;98032.28;;;15.38;100.00
20394;BME280;10356;50.544;9.642;2023-10-13T04:33:23;98035.75;;;15.38;100.00
20394;BME280;10356;50.544;9.642;2023-10-13T04:36:03;98040.69;;;15.41;100.00
20394;BME280;10356;50.544;9.642;2023-10-13T04:38:39;98034.03;;;15.47;100.00
20394;BME280;10356;50.544;9.642;2023-10-13T04:41:21;98029.63;;;15.47;100.00
20394;BME280;10356;50.544;9.642;2023-10-13T04:43:48;98031.25;;;15.48;100.00
20394;BME280;10356;50.544;9.642;2023-10-13T04:46:30;98024.56;;;15.54;100.00
20394;BME280;10356;50.544;9.642;2023-10-13T04:49:19;98026.50;;;15.52;100.00
20394;BME280;10356;50.544;9.642;2023-10-13T04:51:55;98031.31;;;15.56;100.00
20394;BME280;10356;50.544;9.642;2023-10-13T04:54:24;98029.31;;;15.50;100.00
20394;BME280;10356;50.544;9.642;2023-10-13T04:56:59;98023.75;;;15.53;100.00
20394;BME280;10356;50.544;9.642;2023-10-13T04:59:40;98018.19;;;15.56;100.00
20394;BME280;10356;50.544;9.642;2023-10-13T05:02:20;98023.13;;;15.59;100.00
20394;BME280;10356;50.544;9.642;2023-10-13T05:05:05;98012.13;;;15.64;100.00
20394;BME280;10356;50.544;9.642;2023-10-13T05:08:09;98009.38;;;15.65;100.00
20394;BME280;10356;50.544;9.642;2023-10-13T05:10:53;98001.16;;;15.68;100.00
20394;BME280;10356;50.544;9.642;2023-10-13T05:13:37;98007.25;;;15.69;100.00
20394;BME280;10356;50.544;9.642;2023-10-13T05:16:21;98002.28;;;15.66;100.00
20394;BME280;10356;50.544;9.642;2023-10-13T05:19:06;98007.56;;;15.66;100.00
20394;BME280;10356;50.544;9.642;2023-10-13T05:21:50;98011.34;;;15.63;100.00
20394;BME280;10356;50.544;9.642;2023-10-13T05:24:36;98002.28;;;15.66;100.00
20394;BME280;10356;50.544;9.642;2023-10-13T05:27:20;97996.53;;;15.62;100.00
20394;BME280;10356;50.544;9.642;2023-10-13T05:30:05;97995.72;;;15.62;100.00
20394;BME280;10356;50.544;9.642;2023-10-13T05:32:49;97999.16;;;15.62;100.00
20394;BME280;10356;50.544;9.642;2023-10-13T05:35:33;97997.25;;;15.72;100.00
20394;BME280;10356;50.544;9.642;2023-10-13T05:38:17;97993.66;;;15.73;100.00
20394;BME280;10356;50.544;9.642;2023-10-13T05:41:05;98003.50;;;15.71;100.00
20394;BME280;10356;50.544;9.642;2023-10-13T05:43:49;97996.59;;;15.70;100.00
20394;BME280;10356;50.544;9.642;2023-10-13T05:46:34;97989.88;;;15.76;100.00
20394;BME280;10356;50.544;9.642;2023-10-13T05:49:26;97988.41;;;15.73;100.00
20394;BME280;10356;50.544;9.642;2023-10-13T05:52:15;97992.81;;;15.73;100.00
20394;BME280;10356;50.544;9.642;2023-10-13T05:55:01;97975.59;;;15.78;100.00
20394;BME280;10356;50.544;9.642;2023-10-13T05:57:55;97986.44;;;15.75;100.00
20394;BME280;10356;50.544;9.642;2023-10-13T06:00:41;97974.09;;;15.76;100.00
20394;BME280;10356;50.544;9.642;2023-10-13T06:03:25;97974.97;;;15.84;100.00
20394;BME280;10356;50.544;9.642;2023-10-13T06:06:10;97986.16;;;15.86;100.00
20394;BME280;10356;50.544;9.642;2023-10-13T06:08:54;97985.19;;;15.87;100.00
20394;BME280;10356;50.544;9.642;2023-10-13T06:11:38;97985.50;;;15.92;100.00
20394;BME280;10356;50.544;9.642;2023-10-13T06:14:23;97987.50;;;15.98;100.00
20394;BME280;10356;50.544;9.642;2023-10-13T06:17:07;97996.06;;;16.01;100.00
20394;BME280;10356;50.544;9.642;2023-10-13T06:19:52;97989.84;;;16.10;100.00
20394;BME280;10356;50.544;9.642;2023-10-13T06:22:36;97999.06;;;16.14;100.00
20394;BME280;10356;50.544;9.642;2023-10-13T06:25:20;98002.38;;;16.16;100.00
20394;BME280;10356;50.544;9.642;2023-10-13T06:28:04;98008.28;;;16.18;100.00
20394;BME280;10356;50.544;9.642;2023-10-13T06:30:58;98015.53;;;16.24;100.00
20394;BME280;10356;50.544;9.642;2023-10-13T06:33:26;98004.03;;;16.25;100.00
20394;BME280;10356;50.544;9.642;2023-10-13T06:35:56;98000.75;;;16.31;100.00
20394;BME280;10356;50.544;9.642;2023-10-13T06:38:23;97996.97;;;16.33;100.00
20394;BME280;10356;50.544;9.642;2023-10-13T06:40:52;97989.59;;;16.37;100.00
20394;BME280;10356;50.544;9.642;2023-10-13T06:43:18;97986.00;;;16.46;100.00
20394;BME280;10356;50.544;9.642;2023-10-13T06:45:47;97987.63;;;16.47;100.00
20394;BME280;10356;50.544;9.642;2023-10-13T06:48:24;97997.88;;;16.50;100.00
20394;BME280;10356;50.544;9.642;2023-10-13T06:50:50;97997.22;;;16.56;100.00
20394;BME280;10356;50.544;9.642;2023-10-13T06:53:18;97996.88;;;16.59;100.00
20394;BME280;10356;50.544;9.642;2023-10-13T06:55:44;97999.34;;;16.60;100.00
20394;BME280;10356;50.544;9.642;2023-10-13T06:58:14;98002.81;;;16.69;100.00
20394;BME280;10356;50.544;9.642;2023-10-13T07:00:42;98008.91;;;16.69;100.00
20394;BME280;10356;50.544;9.642;2023-10-13T07:03:18;98006.47;;;16.68;100.00
20394;BME280;10356;50.544;9.642;2023-10-13T07:05:46;98000.84;;;16.63;100.00
20394;BME280;10356;50.544;9.642;2023-10-13T07:08:15;98009.22;;;16.66;100.00
20394;BME280;10356;50.544;9.642;2023-10-13T07:10:49;98009.88;;;16.68;100.00
20394;BME280;10356;50.544;9.642;2023-10-13T07:13:16;98012.69;;;16.67;100.00
20394;BME280;10356;50.544;9.642;2023-10-13T07:15:44;98008.44;;;16.66;100.00
20394;BME280;10356;50.544;9.642;2023-10-13T07:18:12;98001.19;;;16.68;100.00
20394;BME280;10356;50.544;9.642;2023-10-13T07:20:41;98003.47;;;16.71;100.00
20394;BME280;10356;50.544;9.642;2023-10-13T07:23:12;97996.59;;;16.78;100.00
20394;BME280;10356;50.544;9.642;2023-10-13T07:25:50;98000.88;;;16.87;100.00
20394;BME280;10356;50.544;9.642;2023-10-13T07:28:17;98004.00;;;16.99;100.00
20394;BME280;10356;50.544;9.642;2023-10-13T07:30:44;98006.28;;;17.10;100.00
20394;BME280;10356;50.544;9.642;2023-10-13T07:33:15;98007.44;;;17.23;100.00
20394;BME280;10356;50.544;9.642;2023-10-13T07:35:45;98003.16;;;17.38;100.00
20394;BME280;10356;50.544;9.642;2023-10-13T07:38:17;97997.88;;;17.46;100.00
20394;BME280;10356;50.544;9.642;2023-10-13T07:40:46;98011.22;;;17.45;100.00
20394;BME280;10356;50.544;9.642;2023-10-13T07:43:16;98001.81;;;17.42;100.00
20394;BME280;10356;50.544;9.642;2023-10-13T07:45:46;97996.56;;;17.42;100.00
20394;BME280;10356;50.544;9.642;2023-10-13T07:48:16;97997.53;;;17.41;100.00
20394;BME280;10356;50.544;9.642;2023-10-13T07:50:47;97994.56;;;17.44;100.00
20394;BME280;10356;50.544;9.642;2023-10-13T07:53:14;98002.81;;;17.49;100.00
20394;BME280;10356;50.544;9.642;2023-10-13T07:55:50;97993.25;;;17.48;100.00
20394;BME280;10356;50.544;9.642;2023-10-13T07:58:20;97985.34;;;17.48;100.00
20394;BME280;10356;50.544;9.642;2023-10-13T08:00:50;97992.91;;;17.59;100.00
20394;BME280;10356;50.544;9.642;2023-10-13T08:03:20;97986.28;;;17.72;100.00
20394;BME280;10356;50.544;9.642;2023-10-13T08:06:08;97985.28;;;17.81;100.00
20394;BME280;10356;50.544;9.642;2023-10-13T08:08:45;97984.53;;;18.03;100.00
20394;BME280;10356;50.544;9.642;2023-10-13T08:11:17;97979.16;;;18.19;100.00
20394;BME280;10356;50.544;9.642;2023-10-13T08:13:57;97977.66;;;18.24;100.00
20394;BME280;10356;50.544;9.642;2023-10-13T08:16:25;97979.09;;;18.35;100.00
20394;BME280;10356;50.544;9.642;2023-10-13T08:19:10;97970.97;;;18.44;100.00
20394;BME280;10356;50.544;9.642;2023-10-13T08:21:38;97977.72;;;18.47;100.00
20394;BME280;10356;50.544;9.642;2023-10-13T08:24:08;97987.94;;;18.50;100.00
20394;BME280;10356;50.544;9.642;2023-10-13T08:26:36;97983.81;;;18.48;100.00
20394;BME280;10356;50.544;9.642;2023-10-13T08:29:19;97978.88;;;18.44;100.00
20394;BME280;10356;50.544;9.642;2023-10-13T08:31:59;97977.03;;;18.53;100.00
20394;BME280;10356;50.544;9.642;2023-10-13T08:34:47;97971.28;;;18.50;100.00
20394;BME280;10356;50.544;9.642;2023-10-13T08:37:35;97967.56;;;18.59;100.00
20394;BME280;10356;50.544;9.642;2023-10-13T08:40:13;97965.31;;;18.56;100.00
20394;BME280;10356;50.544;9.642;2023-10-13T08:43:05;97967.75;;;18.57;100.00
20394;BME280;10356;50.544;9.642;2023-10-13T08:45:40;97971.34;;;18.64;100.00
20394;BME280;10356;50.544;9.642;2023-10-13T08:48:26;97970.97;;;18.67;100.00
20394;BME280;10356;50.544;9.642;2023-10-13T08:50:57;97963.66;;;18.77;100.00
20394;BME280;10356;50.544;9.642;2023-10-13T08:53:31;97958.94;;;18.87;100.00
20394;BME280;10356;50.544;9.642;2023-10-13T08:56:10;97964.81;;;18.97;100.00
20394;BME280;10356;50.544;9.642;2023-10-13T08:58:43;97950.34;;;19.08;100.00
20394;BME280;10356;50.544;9.642;2023-10-13T09:01:28;97943.19;;;19.16;100.00
20394;BME280;10356;50.544;9.642;2023-10-13T09:04:05;97946.66;;;19.32;100.00
20394;BME280;10356;50.544;9.642;2023-10-13T09:06:54;97935.03;;;19.41;100.00
20394;BME280;10356;50.544;9.642;2023-10-13T09:09:44;97933.19;;;19.56;98.81
20394;BME280;10356;50.544;9.642;2023-10-13T09:12:27;97927.56;;;19.59;98.65
20394;BME280;10356;50.544;9.642;2023-10-13T09:15:07;97936.38;;;19.66;98.85
20394;BME280;10356;50.544;9.642;2023-10-13T09:17:45;97941.22;;;19.77;96.97
20394;BME280;10356;50.544;9.642;2023-10-13T09:20:17;97944.66;;;19.92;96.49
20394;BME280;10356;50.544;9.642;2023-10-13T09:22:57;97934.56;;;20.17;94.08
20394;BME280;10356;50.544;9.642;2023-10-13T09:25:34;97932.16;;;20.36;92.45
20394;BME280;10356;50.544;9.642;2023-10-13T09:28:01;97927.78;;;20.43;91.87
20394;BME280;10356;50.544;9.642;2023-10-13T09:30:29;97927.78;;;20.64;90.74
20394;BME280;10356;50.544;9.642;2023-10-13T09:32:59;97925.25;;;20.77;89.00
20394;BME280;10356;50.544;9.642;2023-10-13T09:35:28;97916.66;;;20.75;88.71
20394;BME280;10356;50.544;9.642;2023-10-13T09:37:58;97920.25;;;20.89;88.61
20394;BME280;10356;50.544;9.642;2023-10-13T09:40:24;97910.03;;;21.07;85.91
20394;BME280;10356;50.544;9.642;2023-10-13T09:42:51;97901.56;;;21.18;85.71
20394;BME280;10356;50.544;9.642;2023-10-13T09:45:23;97897.09;;;21.25;84.37
20394;BME280;10356;50.544;9.642;2023-10-13T09:47:55;97899.09;;;21.17;83.38
20394;BME280;10356;50.544;9.642;2023-10-13T09:50:27;97887.94;;;21.00;85.59
20394;BME280;10356;50.544;9.642;2023-10-13T09:52:59;97883.47;;;21.01;84.25
20394;BME280;10356;50.544;9.642;2023-10-13T09:55:29;97888.66;;;21.09;84.56
20394;BME280;10356;50.544;9.642;2023-10-13T09:58:01;97883.81;;;21.53;82.26
20394;BME280;10356;50.544;9.642;2023-10-13T10:00:37;97885.25;;;21.90;79.91
20394;BME280;10356;50.544;9.642;2023-10-13T10:03:16;97882.75;;;21.88;77.89
20394;BME280;10356;50.544;9.642;2023-10-13T10:06:02;97875.41;;;21.90;78.39
20394;BME280;10356;50.544;9.642;2023-10-13T10:08:38;97886.13;;;22.16;78.46
20394;BME280;10356;50.544;9.642;2023-10-13T10:11:34;97877.56;;;22.27;77.92
20394;BME280;10356;50.544;9.642;2023-10-13T10:14:15;97886.19;;;22.49;76.24
20394;BME280;10356;50.544;9.642;2023-10-13T10:16:50;97882.88;;;22.27;76.19
20394;BME280;10356;50.544;9.642;2023-10-13T10:19:26;97881.06;;;22.47;73.54
20394;BME280;10356;50.544;9.642;2023-10-13T10:22:01;97885.34;;;22.48;73.50
20394;BME280;10356;50.544;9.642;2023-10-13T10:24:30;97886.44;;;22.80;71.58
20394;BME280;10356;50.544;9.642;2023-10-13T10:26:58;97884.16;;;23.03;68.22
20394;BME280;10356;50.544;9.642;2023-10-13T10:29:25;97877.41;;;23.27;67.25
20394;BME280;10356;50.544;9.642;2023-10-13T10:31:52;97873.91;;;23.46;65.21
20394;BME280;10356;50.544;9.642;2023-10-13T10:34:18;97884.13;;;23.49;64.36
20394;BME280;10356;50.544;9.642;2023-10-13T10:36:53;97880.47;;;23.24;63.31
20394;BME280;10356;50.544;9.642;2023-10-13T10:39:19;97871.66;;;23.30;62.64
20394;BME280;10356;50.544;9.642;2023-10-13T10:41:53;97871.28;;;23.33;63.35
20394;BME280;10356;50.544;9.642;2023-10-13T10:44:26;97884.16;;;23.43;62.17
20394;BME280;10356;50.544;9.642;2023-10-13T10:47:09;97869.00;;;23.23;64.17
20394;BME280;10356;50.544;9.642;2023-10-13T10:49:37;97868.84;;;23.05;63.55
20394;BME280;10356;50.544;9.642;2023-10-13T10:52:08;97860.81;;;23.51;63.52
20394;BME280;10356;50.544;9.642;2023-10-13T10:54:43;97863.13;;;23.85;60.72
20394;BME280;10356;50.544;9.642;2023-10-13T10:57:11;97855.50;;;23.95;60.68
20394;BME280;10356;50.544;9.642;2023-10-13T10:59:37;97866.06;;;23.64;60.28
20394;BME280;10356;50.544;9.642;2023-10-13T11:02:04;97844.59;;;23.59;60.13
20394;BME280;10356;50.544;9.642;2023-10-13T11:04:32;97847.56;;;23.82;60.94
20394;BME280;10356;50.544;9.642;2023-10-13T11:07:00;97854.22;;;24.04;60.08
20394;BME280;10356;50.544;9.642;2023-10-13T11:09:29;97854.44;;;24.09;57.82
20394;BME280;10356;50.544;9.642;2023-10-13T11:12:09;97847.75;;;24.25;59.09
20394;BME280;10356;50.544;9.642;2023-10-13T11:14:40;97845.38;;;24.48;57.52
20394;BME280;10356;50.544;9.642;2023-10-13T11:17:07;97836.97;;;24.45;56.51
20394;BME280;10356;50.544;9.642;2023-10-13T11:19:46;97845.78;;;24.70;55.70
20394;BME280;10356;50.544;9.642;2023-10-13T11:22:13;97832.84;;;24.49;56.82
20394;BME280;10356;50.544;9.642;2023-10-13T11:24:55;97819.56;;;24.67;55.72
20394;BME280;10356;50.544;9.642;2023-10-13T11:27:28;97810.09;;;24.77;55.44
20394;BME280;10356;50.544;9.642;2023-10-13T11:30:09;97815.66;;;24.45;55.50
20394;BME280;10356;50.544;9.642;2023-10-13T11:32:40;97806.03;;;24.19;56.50
20394;BME280;10356;50.544;9.642;2023-10-13T11:35:07;97810.66;;;23.92;57.70
20394;BME280;10356;50.544;9.642;2023-10-13T11:37:38;97806.16;;;23.55;58.35
20394;BME280;10356;50.544;9.642;2023-10-13T11:40:10;97807.91;;;23.68;59.82
20394;BME280;10356;50.544;9.642;2023-10-13T11:42:38;97808.72;;;23.75;58.75
20394;BME280;10356;50.544;9.642;2023-10-13T11:45:09;97801.50;;;23.38;59.25
20394;BME280;10356;50.544;9.642;2023-10-13T11:47:54;97798.66;;;23.39;59.87
20394;BME280;10356;50.544;9.642;2023-10-13T11:50:25;97790.44;;;23.47;58.67
20394;BME280;10356;50.544;9.642;2023-10-13T11:52:58;97784.06;;;23.48;58.76
20394;BME280;10356;50.544;9.642;2023-10-13T11:55:26;97783.19;;;23.67;59.89
20394;BME280;10356;50.544;9.642;2023-10-13T11:57:53;97781.66;;;23.40;59.76
20394;BME280;10356;50.544;9.642;2023-10-13T12:00:19;97785.53;;;23.38;59.13
20394;BME280;10356;50.544;9.642;2023-10-13T12:03:11;97782.72;;;23.32;59.19
20394;BME280;10356;50.544;9.642;2023-10-13T12:05:56;97775.94;;;23.30;59.28
20394;BME280;10356;50.544;9.642;2023-10-13T12:08:43;97772.25;;;23.31;61.81
20394;BME280;10356;50.544;9.642;2023-10-13T12:11:16;97764.28;;;23.31;60.02
20394;BME280;10356;50.544;9.642;2023-10-13T12:13:56;97763.63;;;23.42;60.90
20394;BME280;10356;50.544;9.642;2023-10-13T12:16:23;97755.63;;;23.49;59.81
20394;BME280;10356;50.544;9.642;2023-10-13T12:18:59;97757.16;;;23.69;60.52
20394;BME280;10356;50.544;9.642;2023-10-13T12:21:26;97747.88;;;23.47;60.82
20394;BME280;10356;50.544;9.642;2023-10-13T12:23:54;97741.75;;;23.40;60.40
20394;BME280;10356;50.544;9.642;2023-10-13T12:26:22;97745.91;;;23.23;61.03
20394;BME280;10356;50.544;9.642;2023-10-13T12:28:57;97747.59;;;23.04;62.09
20394;BME280;10356;50.544;9.642;2023-10-13T12:31:31;97741.25;;;23.05;62.06
20394;BME280;10356;50.544;9.642;2023-10-13T12:33:58;97735.16;;;22.98;61.56
20394;BME280;10356;50.544;9.642;2023-10-13T12:36:31;97730.44;;;23.00;62.21
20394;BME280;10356;50.544;9.642;2023-10-13T12:39:06;97720.44;;;22.96;62.27
20394;BME280;10356;50.544;9.642;2023-10-13T12:41:51;97730.84;;;23.04;62.29
20394;BME280;10356;50.544;9.642;2023-10-13T12:44:35;97730.91;;;22.78;62.89
20394;BME280;10356;50.544;9.642;2023-10-13T12:47:19;97727.38;;;22.97;62.31
20394;BME280;10356;50.544;9.642;2023-10-13T12:50:04;97725.94;;;23.01;62.89
20394;BME280;10356;50.544;9.642;2023-10-13T12:52:39;97722.03;;;23.03;62.76
20394;BME280;10356;50.544;9.642;2023-10-13T12:55:10;97707.88;;;23.16;61.69
20394;BME280;10356;50.544;9.642;2023-10-13T12:57:41;97703.75;;;23.26;60.33
20394;BME280;10356;50.544;9.642;2023-10-13T13:00:11;97701.09;;;23.26;60.50
20394;BME280;10356;50.544;9.642;2023-10-13T13:02:46;97700.09;;;23.21;60.02
20394;BME280;10356;50.544;9.642;2023-10-13T13:05:16;97706.44;;;23.20;60.11
20394;BME280;10356;50.544;9.642;2023-10-13T13:07:47;97698.28;;;23.15;60.19
20394;BME280;10356;50.544;9.642;2023-10-13T13:10:18;97690.72;;;23.18;60.93
20394;BME280;10356;50.544;9.642;2023-10-13T13:12:46;97694.13;;;23.25;61.17
20394;BME280;10356;50.544;9.642;2023-10-13T13:15:12;97695.19;;;23.24;60.02
20394;BME280;10356;50.544;9.642;2023-10-13T13:17:40;97705.44;;;23.21;61.61
20394;BME280;10356;50.544;9.642;2023-10-13T13:20:08;97691.28;;;23.27;59.38
20394;BME280;10356;50.544;9.642;2023-10-13T13:22:50;97685.16;;;23.26;58.81
20394;BME280;10356;50.544;9.642;2023-10-13T13:25:19;97684.50;;;23.38;59.92
20394;BME280;10356;50.544;9.642;2023-10-13T13:27:52;97679.44;;;23.61;57.78